Time;durP1;ratioP1;P1;durP2;ratioP2;P2;SDS_P1;SDS_P2;PMS_P1;PMS_P2;Temp;Humidity;BMP_temperature;BMP_pressure;BME280_temperature;BME280_humidity;BME280_pressure;Samples;Min_cycle;Max_cycle;Signal;HPM_P1;HPM_P2
2022/06/02 00:02:49;;;;;;;17.70;10.95;;;;;;;15.17;74.64;100382.28;6076495;23;20025;-80
2022/06/02 00:05:28;;;;;;;15.57;10.45;;;;;;;15.22;74.62;100377.81;6100488;23;20021;-81
2022/06/02 00:08:21;;;;;;;14.88;10.30;;;;;;;15.27;75.05;100386.47;6126497;23;20137;-78
2022/06/02 00:11:09;;;;;;;15.13;11.32;;;;;;;15.29;74.78;100391.66;6126236;23;20436;-81
2022/06/02 00:13:41;;;;;;;18.80;11.02;;;;;;;15.14;74.38;100384.94;6125275;23;20352;-80
2022/06/02 00:16:25;;;;;;;14.02;10.18;;;;;;;15.09;74.95;100387.66;6125368;23;20014;-80
2022/06/02 00:19:09;;;;;;;13.07;9.77;;;;;;;15.08;75.30;100388.53;6124848;23;20486;-79
2022/06/02 00:21:55;;;;;;;14.80;10.88;;;;;;;15.02;74.76;100388.66;6103772;23;20022;-80
2022/06/02 00:24:40;;;;;;;17.40;10.60;;;;;;;14.97;75.24;100395.75;6111555;23;20014;-79
2022/06/02 00:27:21;;;;;;;15.57;10.50;;;;;;;14.91;75.46;100400.19;6127792;23;20022;-79
2022/06/02 00:30:20;;;;;;;20.50;12.48;;;;;;;14.90;75.48;100398.47;6101556;23;20459;-81
2022/06/02 00:32:52;;;;;;;19.10;12.15;;;;;;;14.90;75.70;100402.81;6064167;23;20018;-79
2022/06/02 00:35:18;;;;;;;;;;;;;;;14.91;75.82;100394.97;6100208;23;20073;-78
2022/06/02 00:38:06;;;;;;;16.05;12.05;;;;;;;14.80;75.53;100383.78;6077156;23;19924;-78
2022/06/02 00:40:34;;;;;;;20.20;12.73;;;;;;;14.78;75.57;100390.84;6101903;23;20024;-80
2022/06/02 00:43:40;;;;;;;19.20;13.90;;;;;;;14.79;75.94;100394.31;6105615;23;20026;-78
2022/06/02 00:46:19;;;;;;;17.83;13.02;;;;;;;14.68;76.13;100377.00;6129831;23;20115;-81
2022/06/02 00:49:00;;;;;;;19.85;12.98;;;;;;;14.80;76.20;100393.41;6069058;23;20021;-78
2022/06/02 00:52:06;;;;;;;16.60;11.70;;;;;;;14.77;76.41;100386.47;6124042;23;20021;-80
2022/06/02 00:57:33;;;;;;;16.35;11.63;;;;;;;14.84;76.22;100382.00;6127510;23;20024;-81
2022/06/02 01:00:30;;;;;;;19.02;12.00;;;;;;;14.81;75.63;100388.13;6100705;23;20018;-79
2022/06/02 01:03:05;;;;;;;18.45;12.32;;;;;;;14.72;76.24;100394.41;6100855;23;20028;-79
2022/06/02 01:05:31;;;;;;;18.08;11.95;;;;;;;14.66;76.32;100394.50;6076318;23;20486;-81
2022/06/02 01:08:04;;;;;;;17.90;12.10;;;;;;;14.64;76.50;100393.66;6127332;23;20049;-78
2022/06/02 01:10:41;;;;;;;19.02;12.35;;;;;;;14.56;76.35;100385.03;6128431;23;20022;-80
2022/06/02 01:13:21;;;;;;;18.50;10.85;;;;;;;14.45;76.38;100391.28;6125403;23;20096;-78
2022/06/02 01:16:19;;;;;;;15.77;10.75;;;;;;;14.27;76.59;100368.91;6075529;23;20049;-79
2022/06/02 01:19:24;;;;;;;18.15;10.48;;;;;;;14.36;76.80;100374.88;6099432;23;20483;-78
2022/06/02 01:22:34;;;;;;;20.42;10.23;;;;;;;14.32;76.92;100376.69;6094159;23;20014;-78
2022/06/02 01:25:32;;;;;;;15.77;10.80;;;;;;;14.28;77.18;100373.25;6069136;23;20373;-78
2022/06/02 01:28:07;;;;;;;11.65;9.57;;;;;;;14.30;77.39;100379.31;6094372;23;20018;-79
2022/06/02 01:31:06;;;;;;;13.35;9.30;;;;;;;14.29;77.22;100379.34;6095108;23;20021;-80
2022/06/02 01:34:21;;;;;;;15.48;10.13;;;;;;;14.20;77.68;100353.31;6081270;23;20096;-80
2022/06/02 01:37:13;;;;;;;17.70;9.55;;;;;;;14.40;77.71;100373.94;6082160;23;20018;-81
2022/06/02 01:39:53;;;;;;;14.20;9.18;;;;;;;14.10;77.77;100321.19;6108885;23;20547;-78
2022/06/02 01:42:57;;;;;;;16.20;9.23;;;;;;;14.60;77.77;100376.25;6107613;23;20018;-79
2022/06/02 01:45:56;;;;;;;16.05;9.02;;;;;;;14.79;77.67;100368.94;6115663;23;20046;-81
2022/06/02 01:49:11;;;;;;;13.63;8.85;;;;;;;14.95;77.31;100384.44;6106029;23;20164;-79
2022/06/02 01:52:10;;;;;;;25.75;9.15;;;;;;;15.06;77.07;100372.88;6109962;23;20017;-82
2022/06/02 01:54:51;;;;;;;16.08;7.97;;;;;;;15.17;77.02;100366.53;6100745;23;20018;-79
2022/06/02 01:57:17;;;;;;;14.52;8.13;;;;;;;15.25;76.54;100356.78;6126136;23;20018;-80
2022/06/02 02:00:04;;;;;;;13.40;7.55;;;;;;;15.30;76.46;100357.56;6075475;23;20045;-78
2022/06/02 02:03:13;;;;;;;12.25;7.28;;;;;;;15.42;76.63;100358.19;6100583;23;20137;-79
2022/06/02 02:05:51;;;;;;;16.65;7.55;;;;;;;15.49;76.01;100349.31;6102852;23;20415;-79
2022/06/02 02:08:51;;;;;;;8.63;7.30;;;;;;;15.44;75.63;100351.16;6125412;23;20020;-79
2022/06/02 02:11:52;;;;;;;14.82;7.68;;;;;;;15.29;75.60;100350.59;6099530;23;20022;-78
2022/06/02 02:14:36;;;;;;;13.65;7.60;;;;;;;15.28;75.75;100350.59;6099766;23;20029;-80
2022/06/02 02:17:35;;;;;;;9.70;6.95;;;;;;;15.20;75.76;100332.41;6099508;23;20049;-80
2022/06/02 02:20:12;;;;;;;10.73;7.05;;;;;;;15.43;75.62;100354.69;6091949;23;20805;-77
2022/06/02 02:23:00;;;;;;;13.55;7.20;;;;;;;15.50;75.61;100349.28;6099420;23;20017;-79
2022/06/02 02:26:15;;;;;;;13.45;7.10;;;;;;;15.65;75.51;100353.34;6125748;23;20020;-79
2022/06/02 02:29:00;;;;;;;12.50;7.80;;;;;;;15.78;75.13;100350.44;6115853;23;20022;-78
2022/06/02 02:31:26;;;;;;;15.32;7.82;;;;;;;15.90;75.12;100347.59;6100222;23;20038;-78
2022/06/02 02:34:07;;;;;;;11.63;7.78;;;;;;;16.05;74.81;100350.78;6126397;23;20460;-79
2022/06/02 02:37:17;;;;;;;11.77;9.43;;;;;;;16.09;74.61;100329.69;6131437;23;20033;-77
2022/06/02 02:39:46;;;;;;;9.23;7.57;;;;;;;16.37;74.41;100349.16;6071204;23;20026;-79
2022/06/02 02:42:32;;;;;;;9.43;7.03;;;;;;;16.56;74.02;100345.19;6103100;23;20040;-78
2022/06/02 02:45:12;;;;;;;10.77;7.53;;;;;;;16.63;72.91;100345.88;6128471;23;20018;-80
2022/06/02 02:47:48;;;;;;;14.38;8.23;;;;;;;16.67;73.29;100351.91;6126799;23;20033;-79
2022/06/02 02:50:35;;;;;;;12.23;7.18;;;;;;;16.81;73.18;100344.56;6125706;23;20097;-79
2022/06/02 02:53:27;;;;;;;10.52;6.65;;;;;;;17.02;72.83;100331.78;6101292;23;20021;-80
2022/06/02 02:56:29;;;;;;;9.05;6.25;;;;;;;17.04;72.14;100310.69;6124101;23;20010;-78
2022/06/02 02:59:22;;;;;;;7.60;5.63;;;;;;;17.45;71.96;100327.94;6098867;23;20057;-77
2022/06/02 03:02:27;;;;;;;9.18;6.07;;;;;;;17.40;71.59;100329.00;6124548;23;20093;-82
2022/06/02 03:05:05;;;;;;;8.18;5.25;;;;;;;17.46;70.05;100324.41;6089847;23;20093;-77
2022/06/02 03:07:31;;;;;;;9.60;5.43;;;;;;;17.54;70.76;100326.81;6098713;23;20044;-79
2022/06/02 03:10:07;;;;;;;12.55;5.30;;;;;;;17.58;70.08;100327.56;6099404;23;20017;-77
2022/06/02 03:12:58;;;;;;;10.52;6.03;;;;;;;17.53;70.02;100324.25;6074597;23;20017;-78
2022/06/02 03:15:43;;;;;;;10.77;5.70;;;;;;;17.27;69.20;100317.97;6098575;23;20022;-79
2022/06/02 03:18:38;;;;;;;8.85;5.10;;;;;;;17.05;69.28;100321.19;6098489;23;20072;-79
2022/06/02 03:21:18;;;;;;;7.05;5.05;;;;;;;16.88;70.00;100297.09;6098164;23;20518;-79
2022/06/02 03:24:09;;;;;;;7.90;5.20;;;;;;;16.92;69.61;100311.84;6128738;23;20025;-79
2022/06/02 03:26:45;;;;;;;8.60;5.00;;;;;;;16.98;69.80;100309.97;6101546;23;20014;-80
2022/06/02 03:29:32;;;;;;;9.27;4.95;;;;;;;17.01;69.62;100295.88;6125112;23;20106;-78
2022/06/02 03:32:09;;;;;;;7.65;4.60;;;;;;;17.13;69.62;100311.31;6123707;23;20018;-77
2022/06/02 03:34:40;;;;;;;7.43;4.18;;;;;;;17.24;69.50;100315.41;6122678;23;20022;-77
2022/06/02 03:37:37;;;;;;;5.90;4.40;;;;;;;17.40;69.51;100308.78;6076508;23;20048;-78
2022/06/02 03:40:36;;;;;;;6.18;4.18;;;;;;;17.48;68.68;100316.47;6077352;23;20041;-77
2022/06/02 03:43:12;;;;;;;8.45;4.35;;;;;;;17.60;68.80;100312.59;6064963;23;20017;-78
2022/06/02 03:45:59;;;;;;;6.43;4.28;;;;;;;17.74;68.73;100315.69;6123696;23;20017;-78
2022/06/02 03:48:55;;;;;;;7.90;4.35;;;;;;;17.88;67.38;100319.66;6124624;23;20018;-78
2022/06/02 03:51:29;;;;;;;8.15;4.10;;;;;;;18.03;67.46;100324.47;6124108;23;20033;-78
2022/06/02 03:54:34;;;;;;;7.18;3.70;;;;;;;18.13;67.28;100325.03;6098248;23;20509;-77
2022/06/02 03:57:12;;;;;;;5.95;3.33;;;;;;;18.25;66.88;100315.88;6068451;23;20057;-78
2022/06/02 03:59:38;;;;;;;10.30;3.90;;;;;;;18.44;66.32;100328.44;6074029;23;20486;-77
2022/06/02 04:02:10;;;;;;;4.82;3.47;;;;;;;18.56;66.18;100322.78;6099702;23;20022;-79
2022/06/02 04:04:48;;;;;;;6.63;3.75;;;;;;;18.70;65.96;100330.22;6103968;23;20041;-79
2022/06/02 04:07:36;;;;;;;5.55;3.30;;;;;;;18.80;65.45;100339.50;6098659;23;20109;-80
2022/06/02 04:10:08;;;;;;;5.28;3.70;;;;;;;18.86;65.25;100321.78;6052391;23;20160;-78
2022/06/02 04:13:37;;;;;;;6.22;3.20;;;;;;;19.20;65.09;100332.00;6128149;23;20013;-78
2022/06/02 04:16:21;;;;;;;6.28;3.45;;;;;;;19.41;64.11;100340.94;6039210;23;20029;-77
2022/06/02 04:22:09;;;;;;;7.07;3.50;;;;;;;19.68;63.45;100321.47;6126850;23;20053;-78
2022/06/02 04:24:47;;;;;;;6.30;3.70;;;;;;;19.95;63.55;100332.75;6102090;23;20507;-79
2022/06/02 04:27:47;;;;;;;5.88;2.90;;;;;;;20.10;61.89;100327.75;6132171;23;20018;-78
2022/06/02 04:30:25;;;;;;;4.78;2.92;;;;;;;20.14;61.84;100321.44;6081082;23;20416;-78
2022/06/02 04:33:08;;;;;;;3.92;2.97;;;;;;;20.36;61.96;100326.72;6114523;23;20033;-79
2022/06/02 04:35:49;;;;;;;6.75;3.42;;;;;;;20.37;60.97;100330.22;6096317;23;20021;-79
2022/06/02 04:38:42;;;;;;;5.35;3.47;;;;;;;20.40;60.84;100338.88;6105586;23;20459;-78
2022/06/02 04:41:35;;;;;;;7.82;3.45;;;;;;;20.44;60.94;100336.97;6076102;23;20102;-78
2022/06/02 04:44:21;;;;;;;5.25;3.63;;;;;;;20.69;60.39;100333.28;6099985;23;20017;-79
2022/06/02 04:47:24;;;;;;;5.15;2.95;;;;;;;21.03;59.34;100348.59;6125495;23;20026;-79
2022/06/02 04:50:07;;;;;;;4.32;3.17;;;;;;;21.12;59.60;100343.81;6099366;23;20022;-78
2022/06/02 04:52:48;;;;;;;8.30;3.25;;;;;;;21.39;59.09;100325.84;6098465;23;20408;-81
2022/06/02 04:55:42;;;;;;;5.80;4.00;;;;;;;21.72;58.35;100337.63;6125295;23;20025;-78
2022/06/02 04:58:17;;;;;;;7.63;3.58;;;;;;;21.80;57.77;100330.16;6125504;23;20022;-80
2022/06/02 05:01:07;;;;;;;4.40;3.35;;;;;;;21.89;57.61;100319.13;6124855;23;20029;-79
2022/06/02 05:03:33;;;;;;;5.82;3.40;;;;;;;21.99;56.91;100327.50;6124965;23;20010;-78
2022/06/02 05:06:29;;;;;;;5.20;3.60;;;;;;;21.95;56.15;100337.41;6075503;23;20021;-78
2022/06/02 05:09:22;;;;;;;4.10;3.63;;;;;;;21.86;56.26;100324.56;6064478;23;20025;-78
2022/06/02 05:12:12;;;;;;;5.40;2.97;;;;;;;21.91;56.44;100300.50;6079190;23;20092;-78
2022/06/02 05:15:02;;;;;;;6.15;3.67;;;;;;;22.38;56.17;100309.72;6074376;23;20030;-78
2022/06/02 05:17:46;;;;;;;5.80;3.70;;;;;;;22.41;55.63;100322.78;6123211;23;20080;-78
2022/06/02 05:20:34;;;;;;;5.82;3.80;;;;;;;22.26;55.18;100305.88;6098337;23;20372;-78
2022/06/02 05:23:09;;;;;;;7.28;3.70;;;;;;;22.29;55.62;100304.88;6074790;23;20025;-79
2022/06/02 05:25:35;;;;;;;7.07;3.92;;;;;;;22.41;55.25;100306.88;6074456;23;20024;-79
2022/06/02 05:28:13;;;;;;;6.45;3.92;;;;;;;22.50;54.33;100309.13;6073756;23;20018;-78
2022/06/02 05:30:56;;;;;;;4.40;3.50;;;;;;;22.31;54.45;100303.84;6127742;23;20708;-79
2022/06/02 05:33:25;;;;;;;5.28;3.60;;;;;;;22.29;54.65;100304.88;6098499;23;20018;-79
2022/06/02 05:36:13;;;;;;;8.27;3.60;;;;;;;22.39;54.71;100306.13;6123374;23;20038;-78
2022/06/02 05:38:48;;;;;;;4.07;3.50;;;;;;;22.53;54.37;100301.00;6074044;23;20096;-82
2022/06/02 05:41:27;;;;;;;5.25;3.53;;;;;;;22.71;54.07;100298.34;6098370;23;20477;-77
2022/06/02 05:44:11;;;;;;;8.10;4.53;;;;;;;22.97;54.32;100309.41;6073620;23;20017;-77
2022/06/02 05:46:59;;;;;;;7.15;3.90;;;;;;;23.73;53.73;100300.03;6098727;23;20072;-78
2022/06/02 05:49:51;;;;;;;5.38;3.03;;;;;;;25.79;52.78;100286.91;6098552;23;20088;-79
2022/06/02 05:52:48;;;;;;;6.53;3.50;;;;;;;28.29;48.61;100285.63;6091571;23;20017;-79
2022/06/02 05:55:43;;;;;;;5.40;3.55;;;;;;;29.24;45.27;100217.59;6038902;23;20516;-81
2022/06/02 05:58:38;;;;;;;3.67;3.10;;;;;;;31.13;42.30;100276.91;6039340;23;20015;-80
2022/06/02 06:01:16;;;;;;;6.20;3.60;;;;;;;31.84;39.39;100272.44;6038193;23;20030;-78
2022/06/02 06:03:51;;;;;;;6.22;3.28;;;;;;;32.44;37.87;100272.28;6038869;23;20046;-79
2022/06/02 06:06:30;;;;;;;5.55;3.40;;;;;;;33.72;34.86;100258.28;6063789;23;20014;-79
2022/06/02 06:09:30;;;;;;;5.57;3.30;;;;;;;34.17;33.02;100279.97;6040801;23;20023;-79
2022/06/02 06:12:29;;;;;;;5.73;3.23;;;;;;;34.45;32.63;100242.03;6063685;23;20042;-78
2022/06/02 06:14:55;;;;;;;6.63;3.10;;;;;;;35.19;31.51;100264.06;6064809;23;20473;-79
2022/06/02 06:17:49;;;;;;;5.60;3.08;;;;;;;35.62;29.58;100269.47;6016163;23;20023;-77
2022/06/02 06:20:38;;;;;;;7.85;3.28;;;;;;;36.26;29.56;100255.28;6038815;23;20131;-77
2022/06/02 06:23:28;;;;;;;4.55;2.78;;;;;;;36.48;28.31;100253.75;6063333;23;20014;-79
2022/06/02 06:26:20;;;;;;;9.40;3.40;;;;;;;36.58;27.96;100258.97;6060933;23;20013;-77
2022/06/02 06:29:23;;;;;;;4.68;3.15;;;;;;;36.93;26.94;100266.81;6074290;23;20026;-78
2022/06/02 06:32:10;;;;;;;4.00;2.88;;;;;;;37.44;26.45;100258.31;6123671;23;20014;-80
2022/06/02 06:34:50;;;;;;;5.65;3.38;;;;;;;37.45;26.24;100260.00;6123726;23;20336;-78
2022/06/02 06:37:37;;;;;;;3.45;3.15;;;;;;;38.75;25.17;100256.53;6096723;23;20416;-79
2022/06/02 06:40:34;;;;;;;5.70;2.40;;;;;;;39.55;24.09;100256.72;6073310;23;20041;-78
2022/06/02 06:43:01;;;;;;;6.95;2.55;;;;;;;40.50;23.85;100251.09;6098003;23;20105;-77
2022/06/02 06:45:35;;;;;;;6.72;2.92;;;;;;;41.01;22.14;100243.63;6098456;23;20014;-78
2022/06/02 06:48:38;;;;;;;6.32;2.10;;;;;;;41.34;21.54;100249.22;6073709;23;20104;-79
2022/06/02 06:51:21;;;;;;;4.40;2.72;;;;;;;40.68;21.83;100238.84;6068272;23;20018;-78
2022/06/02 06:54:08;;;;;;;4.13;2.88;;;;;;;41.14;21.62;100245.59;6097536;23;20024;-79
2022/06/02 06:56:43;;;;;;;11.25;2.78;;;;;;;41.39;21.40;100238.47;6123580;23;20085;-78
2022/06/02 06:59:27;;;;;;;4.57;2.22;;;;;;;42.57;20.51;100240.88;6077455;23;20086;-77
2022/06/02 07:02:14;;;;;;;6.63;3.00;;;;;;;42.98;20.22;100231.47;6097650;23;20030;-78
2022/06/02 07:05:05;;;;;;;5.80;2.30;;;;;;;43.56;19.35;100246.09;6098968;23;20028;-79
2022/06/02 07:07:53;;;;;;;3.42;2.38;;;;;;;43.23;19.58;100238.97;6054952;23;20029;-79
2022/06/02 07:10:43;;;;;;;5.25;2.95;;;;;;;43.93;18.58;100237.22;6125918;23;20014;-78
2022/06/02 07:13:19;;;;;;;3.72;2.00;;;;;;;44.13;18.26;100248.03;6098605;23;20014;-78
2022/06/02 07:16:01;;;;;;;3.80;2.40;;;;;;;44.48;17.69;100243.88;6101049;23;20077;-78
2022/06/02 07:18:45;;;;;;;5.80;2.20;;;;;;;45.25;17.34;100234.31;6078762;23;20112;-78
2022/06/02 07:21:23;;;;;;;2.50;2.00;;;;;;;46.15;17.04;100254.47;6100083;23;20022;-78
2022/06/02 07:24:30;;;;;;;9.13;2.40;;;;;;;46.67;16.11;100247.38;6101867;23;20021;-76
2022/06/02 07:27:45;;;;;;;4.57;2.20;;;;;;;46.64;16.27;100255.25;6075602;23;20021;-77
2022/06/02 07:30:43;;;;;;;5.35;2.20;;;;;;;46.16;16.81;100258.91;6072603;23;20045;-78
2022/06/02 07:33:20;;;;;;;7.82;2.90;;;;;;;45.73;16.36;100262.78;6102342;23;20020;-77
2022/06/02 07:36:19;;;;;;;5.13;2.80;;;;;;;45.43;16.16;100255.38;6127097;23;20021;-78
2022/06/02 07:39:02;;;;;;;3.33;2.30;;;;;;;46.14;15.77;100252.78;6099263;23;20525;-78
2022/06/02 07:41:50;;;;;;;7.22;2.42;;;;;;;47.15;15.34;100255.47;6081950;23;20018;-79
2022/06/02 07:44:54;;;;;;;3.15;2.85;;;;;;;47.00;14.73;100264.31;6125484;23;20138;-80
2022/06/02 07:48:04;;;;;;;3.30;2.58;;;;;;;46.04;15.32;100258.03;6075288;23;20360;-78
2022/06/02 07:50:39;;;;;;;4.53;2.53;;;;;;;46.67;15.30;100252.03;6097306;23;20029;-77
2022/06/02 07:53:13;;;;;;;4.05;2.20;;;;;;;47.81;14.81;100258.63;6099967;23;20090;-77
2022/06/02 07:55:56;;;;;;;5.30;2.53;;;;;;;47.93;14.36;100264.06;6077563;23;20022;-77
2022/06/02 07:58:57;;;;;;;7.28;3.35;;;;;;;48.23;14.51;100256.50;6131837;23;20025;-80
2022/06/02 08:01:32;;;;;;;6.03;3.10;;;;;;;49.02;14.00;100262.78;6131637;23;20017;-79
2022/06/02 08:04:33;;;;;;;7.22;2.92;;;;;;;49.68;13.13;100258.19;6084148;23;20054;-80
2022/06/02 08:07:17;;;;;;;6.10;2.80;;;;;;;49.64;13.36;100266.19;6105105;23;20021;-79
2022/06/02 08:10:05;;;;;;;3.63;3.10;;;;;;;48.74;13.25;100255.56;6109575;23;20100;-79
2022/06/02 08:13:00;;;;;;;5.03;3.90;;;;;;;49.78;13.04;100257.44;6094482;23;20018;-77
2022/06/02 08:15:45;;;;;;;5.20;2.60;;;;;;;49.11;13.09;100255.72;6102328;23;20010;-79
2022/06/02 08:18:37;;;;;;;6.47;2.90;;;;;;;48.62;13.83;100255.69;6151334;23;20022;-80
2022/06/02 08:21:25;;;;;;;7.65;3.33;;;;;;;48.82;13.71;100242.16;6122704;23;20017;-77
2022/06/02 08:24:48;;;;;;;4.32;3.45;;;;;;;49.46;13.46;100252.78;6125357;23;20026;-78
2022/06/02 08:27:40;;;;;;;5.15;4.28;;;;;;;50.56;12.93;100247.75;6104897;23;20022;-79
2022/06/02 08:30:20;;;;;;;9.43;3.63;;;;;;;50.71;11.98;100258.88;6126384;23;20036;-78
2022/06/02 08:33:08;;;;;;;5.18;2.80;;;;;;;50.84;12.44;100249.25;6100520;23;20017;-78
2022/06/02 08:35:57;;;;;;;8.20;3.47;;;;;;;51.21;12.06;100239.09;6125170;23;20415;-78
2022/06/02 08:38:39;;;;;;;4.55;2.90;;;;;;;51.05;12.11;100249.31;6125464;23;20391;-78
2022/06/02 08:41:32;;;;;;;7.72;3.00;;;;;;;50.27;12.00;100243.44;6099916;23;20021;-78
2022/06/02 08:44:25;;;;;;;4.65;2.50;;;;;;;50.60;11.95;100248.88;6074152;23;20431;-78
2022/06/02 08:47:30;;;;;;;3.97;2.50;;;;;;;51.57;11.89;100244.69;6127384;23;20109;-78
2022/06/02 08:50:48;;;;;;;4.10;2.65;;;;;;;52.44;10.90;100234.53;6099994;23;20022;-79
2022/06/02 08:53:52;;;;;;;5.90;2.65;;;;;;;52.45;10.75;100238.13;6094138;23;20021;-84
2022/06/02 08:56:33;;;;;;;3.83;2.25;;;;;;;50.52;11.68;100244.69;6127749;23;20526;-83
2022/06/02 08:59:31;;;;;;;6.60;2.63;;;;;;;48.38;12.93;100247.66;6076465;23;20105;-80
2022/06/02 09:02:25;;;;;;;3.95;2.05;;;;;;;47.08;13.78;100244.63;6127356;23;20018;-81
2022/06/02 09:04:54;;;;;;;3.78;2.22;;;;;;;47.35;14.44;100236.59;6087794;23;20013;-81
2022/06/02 09:07:23;;;;;;;6.55;2.80;;;;;;;48.41;13.73;100233.34;6130523;23;20067;-80
2022/06/02 09:10:10;;;;;;;3.20;2.20;;;;;;;49.23;12.97;100238.19;6091809;23;20060;-82
2022/06/02 09:12:36;;;;;;;3.08;2.28;;;;;;;48.50;13.27;100226.28;6141834;23;20033;-80
2022/06/02 09:15:27;;;;;;;7.75;2.58;;;;;;;48.59;13.00;100234.13;6089411;23;20017;-80
2022/06/02 09:18:18;;;;;;;4.70;2.80;;;;;;;47.00;14.33;100243.09;6052463;23;20019;-79
2022/06/02 09:20:59;;;;;;;4.93;2.55;;;;;;;47.89;13.61;100231.75;6108785;23;20102;-81
2022/06/02 09:24:07;;;;;;;5.18;2.08;;;;;;;47.81;13.85;100225.56;6133267;23;20028;-80
2022/06/02 09:26:52;;;;;;;2.50;2.30;;;;;;;48.77;13.12;100214.50;6031642;23;20092;-80
2022/06/02 09:29:23;;;;;;;4.50;2.67;;;;;;;48.85;12.97;100202.16;6127345;23;20018;-81
2022/06/02 09:32:01;;;;;;;3.95;2.40;;;;;;;49.14;12.92;100190.88;6100991;23;20054;-82
2022/06/02 09:35:21;;;;;;;4.15;2.50;;;;;;;50.40;12.25;100211.69;6125508;23;20345;-84
2022/06/02 09:41:45;;;;;;;4.90;2.78;;;;;;;49.28;12.77;100207.84;6033973;23;20021;-81
2022/06/02 09:44:37;;;;;;;4.45;2.67;;;;;;;49.15;12.50;100182.31;6061397;23;20101;-81
2022/06/02 09:47:24;;;;;;;4.78;2.50;;;;;;;48.73;13.05;100212.53;6065832;23;20094;-81
2022/06/02 09:50:40;;;;;;;5.32;2.88;;;;;;;48.37;12.66;100143.94;6067187;23;20461;-81
2022/06/02 09:53:25;;;;;;;4.65;2.78;;;;;;;48.15;13.12;100199.88;6087304;23;20049;-81
2022/06/02 09:56:09;;;;;;;6.20;4.05;;;;;;;46.08;14.64;100201.53;6100593;23;20018;-82
2022/06/02 09:59:03;;;;;;;3.78;3.10;;;;;;;46.14;15.21;100195.06;6098309;23;20460;-83
2022/06/02 10:01:44;;;;;;;7.03;5.40;;;;;;;46.54;14.95;100181.63;6074885;23;20018;-80
2022/06/02 10:04:39;;;;;;;6.30;3.80;;;;;;;47.70;14.17;100184.31;6124628;23;20029;-82
2022/06/02 10:07:19;;;;;;;6.90;3.72;;;;;;;48.00;13.95;100180.38;6126247;23;20025;-81
2022/06/02 10:09:52;;;;;;;7.53;6.13;;;;;;;48.09;13.12;100171.41;6129239;23;20017;-83
2022/06/02 10:13:16;;;;;;;3.88;3.10;;;;;;;48.04;13.46;100146.53;6082061;23;20025;-83
2022/06/02 10:15:55;;;;;;;6.28;3.63;;;;;;;48.30;13.36;100168.06;6100769;23;20022;-81
2022/06/02 10:18:48;;;;;;;6.78;2.78;;;;;;;45.90;14.08;100175.00;6126877;23;20073;-82
2022/06/02 10:21:20;;;;;;;4.18;2.90;;;;;;;45.41;15.09;100177.91;6080346;23;20638;-84
2022/06/02 10:24:24;;;;;;;4.93;3.25;;;;;;;44.61;15.79;100168.84;6053208;23;20365;-82
2022/06/02 10:27:39;;;;;;;3.40;2.90;;;;;;;42.42;17.08;100164.56;6131540;23;20046;-78
2022/06/02 10:30:50;;;;;;;6.07;3.17;;;;;;;40.91;18.62;100160.28;6125547;23;20105;-78
2022/06/02 10:33:28;;;;;;;;;;;;;;;39.74;19.48;100170.84;6050615;23;20104;-79
2022/06/02 10:36:17;;;;;;;5.78;2.95;;;;;;;38.28;21.06;100180.66;6123394;23;19913;-80
2022/06/02 10:39:10;;;;;;;13.85;5.50;;;;;;;36.96;22.06;100181.66;6099218;23;20056;-83
2022/06/02 10:41:45;;;;;;;15.95;12.02;;;;;;;35.97;23.02;100088.84;6097203;23;20052;-78
2022/06/02 10:44:16;;;;;;;4.57;2.50;;;;;;;36.21;23.04;100171.00;6098100;23;20018;-78
2022/06/02 10:47:07;;;;;;;5.93;3.17;;;;;;;35.33;24.28;100164.38;6098145;23;20024;-79
2022/06/02 10:49:38;;;;;;;7.10;3.38;;;;;;;34.32;24.99;100075.03;6049179;23;20025;-79
2022/06/02 10:52:58;;;;;;;8.48;3.63;;;;;;;34.69;25.09;100166.53;6097439;23;20018;-79
2022/06/02 10:55:47;;;;;;;5.95;3.45;;;;;;;34.47;25.57;100164.41;6098447;23;20018;-80
2022/06/02 10:59:07;;;;;;;6.28;4.15;;;;;;;34.24;25.77;100137.94;6099265;23;20468;-78
2022/06/02 11:02:01;;;;;;;5.00;2.88;;;;;;;34.04;25.65;100156.22;6086728;23;20092;-77
2022/06/02 11:05:07;;;;;;;3.20;2.90;;;;;;;33.23;27.66;100180.38;6099362;23;20364;-78
2022/06/02 11:08:11;;;;;;;4.75;2.63;;;;;;;32.42;28.74;100185.44;6053403;23;20026;-79
2022/06/02 11:10:55;;;;;;;2.90;2.55;;;;;;;31.98;30.10;100185.09;6100578;23;20020;-79
2022/06/02 11:13:57;;;;;;;5.30;2.70;;;;;;;31.63;29.99;100179.28;6099358;23;20037;-79
2022/06/02 11:16:36;;;;;;;3.70;2.83;;;;;;;30.97;30.89;100188.75;6125971;23;20096;-81
2022/06/02 11:19:38;;;;;;;5.63;3.15;;;;;;;30.51;32.33;100191.81;6127003;23;20382;-79
2022/06/02 11:22:39;;;;;;;5.10;3.08;;;;;;;30.24;33.28;100188.81;6107323;23;20024;-78
2022/06/02 11:25:24;;;;;;;5.45;2.78;;;;;;;30.08;33.49;100178.56;6101818;23;20109;-78
2022/06/02 11:28:16;;;;;;;3.17;2.40;;;;;;;30.23;33.48;100176.41;6128634;23;20018;-77
2022/06/02 11:31:10;;;;;;;3.70;2.63;;;;;;;30.26;33.39;100184.16;6127021;23;20026;-79
2022/06/02 11:33:48;;;;;;;6.03;2.72;;;;;;;30.01;33.84;100189.81;6076407;23;20025;-77
2022/06/02 11:36:42;;;;;;;4.05;2.72;;;;;;;29.96;34.53;100181.31;6100740;23;20359;-77
2022/06/02 11:40:00;;;;;;;4.32;3.05;;;;;;;29.81;34.41;100188.78;6075700;23;20022;-78
2022/06/02 11:43:15;;;;;;;7.35;3.10;;;;;;;29.46;34.75;100182.69;6078857;23;20324;-77
2022/06/02 11:45:52;;;;;;;6.60;3.35;;;;;;;29.34;34.97;100185.53;6077449;23;20014;-79
2022/06/02 11:48:40;;;;;;;4.70;3.13;;;;;;;29.32;35.58;100188.31;6078276;23;20017;-78
2022/06/02 11:51:26;;;;;;;6.03;3.00;;;;;;;29.14;35.61;100177.28;6059562;23;20017;-78
2022/06/02 11:54:20;;;;;;;5.15;3.10;;;;;;;29.05;35.75;100133.34;6108075;23;20110;-77
2022/06/02 11:57:23;;;;;;;6.90;2.90;;;;;;;29.03;35.93;100155.88;6124095;23;20018;-78
2022/06/02 11:59:58;;;;;;;9.50;3.17;;;;;;;29.10;36.08;100175.84;6112113;23;20073;-78
2022/06/02 12:02:33;;;;;;;6.03;3.33;;;;;;;28.96;36.44;100182.31;6077660;23;20449;-81
2022/06/02 12:05:19;;;;;;;5.78;3.10;;;;;;;28.68;37.11;100181.81;6076479;23;20018;-79
2022/06/02 12:08:23;;;;;;;5.10;3.47;;;;;;;28.41;37.22;100183.00;6100453;23;20468;-77
2022/06/02 12:11:12;;;;;;;4.00;3.10;;;;;;;28.28;37.58;100177.75;6125840;23;20097;-78
2022/06/02 12:14:16;;;;;;;6.80;3.30;;;;;;;28.24;37.37;100178.97;6123828;23;20124;-76
2022/06/02 12:17:01;;;;;;;4.40;3.40;;;;;;;28.18;37.57;100176.78;6126838;23;20028;-78
2022/06/02 12:19:32;;;;;;;5.90;3.00;;;;;;;28.15;37.64;100172.50;6100523;23;20351;-79
2022/06/02 12:22:00;;;;;;;5.07;3.13;;;;;;;28.04;38.04;100167.94;6126315;23;20018;-78
2022/06/02 12:24:50;;;;;;;6.20;3.08;;;;;;;28.16;38.23;100160.81;6076866;23;20024;-79
2022/06/02 12:28:05;;;;;;;5.03;3.07;;;;;;;28.20;37.86;100143.56;6126829;23;20081;-78
2022/06/02 12:30:51;;;;;;;5.13;2.80;;;;;;;28.17;37.66;100169.72;6054367;23;20072;-78
2022/06/02 12:33:38;;;;;;;5.72;2.60;;;;;;;28.13;38.27;100163.75;6125470;23;20018;-78
2022/06/02 12:36:30;;;;;;;4.53;3.05;;;;;;;28.30;38.50;100162.44;6124786;23;20076;-77
2022/06/02 12:39:43;;;;;;;7.60;3.22;;;;;;;28.51;38.00;100149.22;6074592;23;20052;-78
2022/06/02 12:42:46;;;;;;;6.07;3.03;;;;;;;28.61;37.35;100146.66;6075052;23;20055;-78
2022/06/02 12:45:24;;;;;;;27.88;6.05;;;;;;;28.69;37.61;100143.34;6075487;23;20456;-80
2022/06/02 12:48:15;;;;;;;4.22;2.80;;;;;;;28.54;37.51;100132.03;6099796;23;20025;-79
2022/06/02 12:51:10;;;;;;;4.53;2.70;;;;;;;28.33;37.72;100156.84;6100439;23;20045;-78
2022/06/02 12:54:03;;;;;;;3.63;2.63;;;;;;;28.10;38.27;100148.78;6098630;23;20017;-77
2022/06/02 12:56:55;;;;;;;4.45;2.95;;;;;;;28.02;38.67;100150.31;6124227;23;20108;-77
2022/06/02 12:59:33;;;;;;;5.55;2.90;;;;;;;28.14;37.90;100149.41;6052238;23;20024;-76
2022/06/02 13:02:22;;;;;;;5.85;3.35;;;;;;;28.08;37.99;100140.00;6125112;23;20022;-79
2022/06/02 13:04:57;;;;;;;;;;;;;;;28.14;38.42;100144.03;6077012;23;20419;-80
2022/06/02 13:07:48;;;;;;;5.13;3.25;;;;;;;28.23;38.09;100147.84;6074653;23;19912;-77
2022/06/02 13:10:34;;;;;;;4.80;2.90;;;;;;;28.29;38.33;100144.69;6050052;23;20112;-77
2022/06/02 13:13:36;;;;;;;5.75;3.28;;;;;;;28.09;38.64;100139.03;6124932;23;20022;-76